Terminal Aerodrome Forecast
Issued by NWS

Home | Current Version | Previous Version | Text Only | Print | Product List | Glossary On
Versions: 1 2 3 4 5 6 7 8 9 10 11 12
000
FTUS45 KABQ 101732
TAFGUP
TAF
KGUP 101732Z 1018/1118 24013KT P6SM BKN200
      TEMPO 1018/1020 VRB05KT
     FM110100 23009KT P6SM BKN150
     FM111300 22007KT P6SM SCT004 BKN100
     FM111600 23010KT P6SM FEW010 BKN050=

USA.gov is the U.S. government's official web portal to all federal, state and local government web resources and services.